Time;durP1;ratioP1;P1;durP2;ratioP2;P2;SDS_P1;SDS_P2;PMS_P1;PMS_P2;Temp;Humidity;BMP_temperature;BMP_pressure;BME280_temperature;BME280_humidity;BME280_pressure;Samples;Min_cycle;Max_cycle;Signal;HPM_P1;HPM_P2
2022/04/14 00:00:30;;;;;;;13.23;8.53;;;12.60;99.90;;;;;;5055286;28;20168;-81
2022/04/14 00:02:56;;;;;;;15.37;9.27;;;12.50;99.90;;;;;;5055177;28;20171;-82
2022/04/14 00:05:22;;;;;;;14.93;8.20;;;12.50;99.90;;;;;;5055001;28;20180;-81
2022/04/14 00:07:47;;;;;;;15.73;10.27;;;12.60;99.90;;;;;;5055417;28;20507;-81
2022/04/14 00:10:14;;;;;;;21.63;11.17;;;12.50;99.90;;;;;;5054250;28;20177;-82
2022/04/14 00:12:40;;;;;;;13.57;8.23;;;12.50;99.90;;;;;;5055159;28;20173;-82
2022/04/14 00:15:07;;;;;;;13.00;9.90;;;12.50;99.90;;;;;;5037209;28;20908;-81
2022/04/14 00:17:33;;;;;;;14.53;9.70;;;12.50;99.90;;;;;;5037031;28;20421;-81
2022/04/14 00:19:59;;;;;;;14.50;10.03;;;12.60;99.90;;;;;;5054541;28;20490;-81
2022/04/14 00:22:25;;;;;;;13.33;8.40;;;12.60;99.90;;;;;;5054995;28;20880;-82
2022/04/14 00:24:50;;;;;;;17.97;10.77;;;12.50;99.90;;;;;;5054891;28;20476;-81
2022/04/14 00:27:19;;;;;;;18.20;9.63;;;12.50;99.90;;;;;;5054709;28;20696;-81
2022/04/14 00:29:46;;;;;;;17.10;9.93;;;12.40;99.90;;;;;;5054604;28;20180;-81
2022/04/14 00:32:12;;;;;;;16.43;10.60;;;12.30;99.90;;;;;;5054796;28;20412;-81
2022/04/14 00:34:37;;;;;;;20.80;11.10;;;12.40;99.90;;;;;;5054335;28;20766;-81
2022/04/14 00:37:03;;;;;;;18.50;10.77;;;12.40;99.90;;;;;;5036939;28;20630;-82
2022/04/14 00:39:29;;;;;;;19.40;10.00;;;12.50;99.90;;;;;;5054685;28;20164;-82
2022/04/14 00:41:54;;;;;;;16.53;9.97;;;12.40;99.90;;;;;;5054394;28;20171;-81
2022/04/14 00:44:20;;;;;;;14.80;8.13;;;12.30;99.90;;;;;;5054323;28;20227;-81
2022/04/14 00:46:45;;;;;;;13.90;8.73;;;12.40;99.90;;;;;;5054298;28;20170;-82
2022/04/14 00:49:11;;;;;;;16.30;10.60;;;12.50;99.90;;;;;;5053978;28;20186;-82
2022/04/14 00:51:37;;;;;;;18.13;10.33;;;12.40;99.90;;;;;;5054232;28;20172;-81
2022/04/14 00:54:02;;;;;;;16.40;10.30;;;12.40;99.90;;;;;;5054220;28;20427;-81
2022/04/14 00:56:28;;;;;;;22.73;11.40;;;12.40;99.90;;;;;;5054224;28;20207;-81
2022/04/14 00:58:53;;;;;;;19.90;12.50;;;12.40;99.90;;;;;;5054119;28;20180;-81
2022/04/14 01:01:20;;;;;;;22.30;11.53;;;12.30;99.90;;;;;;5054010;28;20555;-82
2022/04/14 01:03:46;;;;;;;16.90;10.90;;;12.40;99.90;;;;;;5053599;28;20598;-81
2022/04/14 01:06:14;;;;;;;18.33;9.77;;;12.20;99.90;;;;;;5053946;28;20419;-82
2022/04/14 01:09:16;;;;;;;18.20;9.30;;;12.40;99.90;;;;;;5053876;28;20809;-82
2022/04/14 01:11:27;;;;;;;22.07;12.10;;;12.30;99.90;;;;;;5053758;28;20438;-82
2022/04/14 01:13:53;;;;;;;15.43;10.10;;;12.30;99.90;;;;;;5036021;28;20781;-81
2022/04/14 01:16:19;;;;;;;14.73;10.27;;;12.30;99.90;;;;;;5053983;28;20229;-82
2022/04/14 01:18:44;;;;;;;17.17;10.70;;;12.20;99.90;;;;;;5053528;28;20175;-82
2022/04/14 01:21:10;;;;;;;18.30;9.77;;;12.20;99.90;;;;;;5035820;28;20171;-82
2022/04/14 01:23:42;;;;;;;17.87;10.73;;;12.20;99.90;;;;;;5053698;28;20283;-82
2022/04/14 01:26:08;;;;;;;14.53;10.23;;;12.20;99.90;;;;;;5053818;28;20170;-82
2022/04/14 01:28:34;;;;;;;14.30;9.40;;;12.20;99.90;;;;;;5053444;28;20552;-82
2022/04/14 01:30:59;;;;;;;15.97;11.57;;;12.30;99.90;;;;;;5053458;28;20526;-82
2022/04/14 01:33:25;;;;;;;15.83;9.67;;;12.30;99.90;;;;;;5053037;28;20171;-82
2022/04/14 01:35:50;;;;;;;14.23;9.47;;;12.20;99.90;;;;;;5053453;28;20176;-82
2022/04/14 01:38:16;;;;;;;18.23;10.10;;;12.20;99.90;;;;;;5053438;28;20180;-83
2022/04/14 01:40:41;;;;;;;15.33;10.10;;;12.20;99.90;;;;;;5053524;28;20263;-82
2022/04/14 01:43:07;;;;;;;18.77;11.23;;;12.20;99.90;;;;;;5053281;28;20170;-81
2022/04/14 01:45:32;;;;;;;15.63;9.47;;;12.20;99.90;;;;;;5053222;28;20270;-83
2022/04/14 01:47:58;;;;;;;19.80;11.00;;;12.20;99.90;;;;;;5053158;28;20183;-82
2022/04/14 01:50:23;;;;;;;18.60;10.83;;;12.20;99.90;;;;;;5052765;28;20207;-82
2022/04/14 01:52:50;;;;;;;13.37;9.63;;;12.30;99.90;;;;;;5053152;28;20595;-82
2022/04/14 01:55:15;;;;;;;14.80;10.57;;;12.10;99.90;;;;;;5035355;28;20171;-82
2022/04/14 01:57:41;;;;;;;20.70;11.53;;;12.10;99.90;;;;;;5035453;28;20874;-82
2022/04/14 02:00:08;;;;;;;17.47;10.60;;;12.10;99.90;;;;;;5053202;28;20171;-82
2022/04/14 02:02:34;;;;;;;15.70;10.77;;;12.10;99.90;;;;;;5053065;28;20418;-82
2022/04/14 02:05:00;;;;;;;17.00;11.70;;;12.10;99.90;;;;;;5052758;28;20479;-82
2022/04/14 02:07:25;;;;;;;18.83;11.13;;;12.00;99.90;;;;;;5053139;28;20421;-81
2022/04/14 02:09:51;;;;;;;16.70;9.97;;;12.00;99.90;;;;;;5052881;28;20174;-81
2022/04/14 02:12:16;;;;;;;21.70;10.47;;;12.00;99.90;;;;;;5052827;28;20176;-81
2022/04/14 02:14:43;;;;;;;16.67;11.50;;;11.90;99.90;;;;;;5052892;28;20563;-81
2022/04/14 02:17:09;;;;;;;17.57;10.67;;;12.00;99.90;;;;;;5052773;28;20163;-81
2022/04/14 02:19:34;;;;;;;13.07;8.83;;;12.00;99.90;;;;;;5052450;28;20436;-81
2022/04/14 02:22:00;;;;;;;14.70;10.20;;;12.00;99.90;;;;;;5052892;28;20170;-81
2022/04/14 02:24:26;;;;;;;20.73;11.23;;;11.90;99.90;;;;;;5052709;28;20210;-81
2022/04/14 02:26:52;;;;;;;22.07;11.27;;;11.90;99.90;;;;;;5034972;28;20631;-81
2022/04/14 02:29:18;;;;;;;17.87;11.00;;;11.90;99.90;;;;;;5052566;28;20457;-80
2022/04/14 02:31:44;;;;;;;21.03;10.30;;;11.90;99.90;;;;;;5052514;28;20437;-80
2022/04/14 02:34:09;;;;;;;14.43;10.60;;;11.90;99.90;;;;;;5054277;28;20410;-79
2022/04/14 02:36:35;;;;;;;16.97;10.80;;;11.90;99.90;;;;;;5055605;28;20166;-79
2022/04/14 02:39:00;;;;;;;17.37;10.63;;;11.90;99.90;;;;;;5056683;28;20254;-80
2022/04/14 02:41:26;;;;;;;18.70;9.50;;;11.80;99.90;;;;;;5055784;28;20178;-79
2022/04/14 02:43:51;;;;;;;18.60;10.30;;;11.80;99.90;;;;;;5038962;28;20223;-79
2022/04/14 02:46:17;;;;;;;19.37;11.90;;;11.80;99.90;;;;;;5038920;28;20174;-79
2022/04/14 02:48:42;;;;;;;19.20;10.70;;;11.80;99.90;;;;;;5056351;28;20513;-80
2022/04/14 02:51:08;;;;;;;19.07;11.50;;;11.80;99.90;;;;;;5056640;28;20171;-80
2022/04/14 02:53:34;;;;;;;20.60;11.27;;;11.80;99.90;;;;;;5038923;28;20652;-79
2022/04/14 02:55:59;;;;;;;14.77;9.60;;;11.80;99.90;;;;;;5038894;28;20216;-79
2022/04/14 02:58:25;;;;;;;19.13;11.83;;;11.70;99.90;;;;;;5056562;28;20165;-79
2022/04/14 03:00:51;;;;;;;16.90;11.10;;;11.70;99.90;;;;;;5056444;28;20180;-81
2022/04/14 03:03:17;;;;;;;18.07;12.40;;;11.80;99.90;;;;;;5056119;28;21010;-80
2022/04/14 03:05:42;;;;;;;19.70;11.30;;;11.70;99.90;;;;;;5056505;28;20186;-81
2022/04/14 03:08:08;;;;;;;15.53;9.90;;;11.60;99.90;;;;;;5056405;28;20409;-80
2022/04/14 03:10:34;;;;;;;15.80;10.20;;;11.70;99.90;;;;;;5038433;28;20182;-80
2022/04/14 03:12:59;;;;;;;18.97;11.90;;;11.60;99.90;;;;;;5056276;28;20258;-81
2022/04/14 03:15:25;;;;;;;20.63;11.00;;;11.60;99.90;;;;;;5056260;28;20171;-81
2022/04/14 03:17:50;;;;;;;18.70;11.43;;;11.50;99.90;;;;;;5056296;28;20173;-80
2022/04/14 03:20:16;;;;;;;16.43;11.40;;;11.50;99.90;;;;;;5037950;28;20180;-81
2022/04/14 03:22:42;;;;;;;20.60;10.80;;;11.50;99.90;;;;;;5056179;28;20271;-82
2022/04/14 03:25:10;;;;;;;20.50;11.87;;;11.50;99.90;;;;;;5055973;28;20216;-82
2022/04/14 03:27:37;;;;;;;23.30;11.90;;;11.50;99.90;;;;;;5055822;28;20483;-82
2022/04/14 03:30:06;;;;;;;16.60;10.43;;;11.50;99.90;;;;;;5055998;28;20922;-82
2022/04/14 03:32:32;;;;;;;23.47;11.67;;;11.50;99.90;;;;;;5053009;28;20428;-81
2022/04/14 03:35:04;;;;;;;19.60;12.13;;;11.50;99.90;;;;;;5055611;28;20968;-80
2022/04/14 03:37:30;;;;;;;18.43;11.43;;;11.50;99.90;;;;;;5037928;28;20206;-81
2022/04/14 03:39:55;;;;;;;19.60;13.87;;;11.50;99.90;;;;;;5055808;28;20449;-80
2022/04/14 03:42:21;;;;;;;21.67;12.70;;;11.50;99.90;;;;;;5055778;28;20162;-80
2022/04/14 03:44:47;;;;;;;27.10;11.90;;;11.40;99.90;;;;;;5055537;28;20206;-80
2022/04/14 03:47:12;;;;;;;21.30;11.77;;;11.40;99.90;;;;;;5055639;28;20534;-80
2022/04/14 03:49:38;;;;;;;23.03;14.23;;;11.40;99.90;;;;;;5055373;28;20257;-80
2022/04/14 03:52:04;;;;;;;22.70;12.20;;;11.40;99.90;;;;;;5055589;28;20200;-80
2022/04/14 03:54:29;;;;;;;18.60;11.80;;;11.40;99.90;;;;;;5055515;28;20179;-81
2022/04/14 03:56:55;;;;;;;18.00;10.90;;;11.40;99.90;;;;;;5055609;28;20413;-80
2022/04/14 03:59:21;;;;;;;19.83;12.73;;;11.30;99.90;;;;;;5055512;28;20173;-82
2022/04/14 04:01:46;;;;;;;21.70;11.80;;;11.40;99.90;;;;;;5055166;28;20198;-81
2022/04/14 04:04:12;;;;;;;20.00;12.20;;;11.30;99.90;;;;;;5054735;28;20214;-81
2022/04/14 04:06:37;;;;;;;19.93;11.73;;;11.30;99.90;;;;;;5055073;28;20174;-81
2022/04/14 04:09:03;;;;;;;22.40;11.57;;;11.30;99.90;;;;;;5055140;28;20175;-81
2022/04/14 04:11:29;;;;;;;19.37;11.50;;;11.30;99.90;;;;;;5055080;28;20173;-80
2022/04/14 04:13:54;;;;;;;23.73;13.37;;;11.20;99.90;;;;;;5054941;28;20413;-81
2022/04/14 04:16:20;;;;;;;23.87;12.73;;;11.30;99.90;;;;;;5054862;28;20175;-80
2022/04/14 04:18:45;;;;;;;19.50;12.00;;;11.20;99.90;;;;;;5054573;28;20294;-80
2022/04/14 04:21:11;;;;;;;27.00;13.40;;;11.20;99.90;;;;;;5054811;28;20201;-81
2022/04/14 04:23:36;;;;;;;19.73;10.47;;;11.20;99.90;;;;;;5054707;28;20204;-81
2022/04/14 04:26:02;;;;;;;21.70;12.23;;;11.20;99.90;;;;;;5036819;28;20534;-80
2022/04/14 04:28:30;;;;;;;17.83;10.53;;;11.10;99.90;;;;;;5054584;28;20229;-81
2022/04/14 04:30:59;;;;;;;21.87;12.60;;;11.20;99.90;;;;;;5054739;28;20202;-80
2022/04/14 04:33:24;;;;;;;21.37;12.73;;;11.20;99.90;;;;;;5054343;28;20411;-81
2022/04/14 04:35:51;;;;;;;18.07;10.93;;;11.20;99.90;;;;;;5054551;28;20870;-81
2022/04/14 04:38:16;;;;;;;22.53;12.27;;;11.30;99.90;;;;;;5054498;28;20172;-80
2022/04/14 04:40:42;;;;;;;19.47;11.80;;;11.30;99.90;;;;;;5054480;28;20422;-81
2022/04/14 04:43:09;;;;;;;20.10;11.83;;;11.40;99.90;;;;;;5054274;28;20165;-81
2022/04/14 04:45:37;;;;;;;20.10;11.87;;;11.40;99.90;;;;;;5054288;28;20223;-81
2022/04/14 04:48:04;;;;;;;19.80;10.77;;;11.40;99.90;;;;;;5053973;28;20921;-81
2022/04/14 04:50:30;;;;;;;19.10;11.40;;;11.50;99.90;;;;;;5054179;28;20423;-81
2022/04/14 04:52:55;;;;;;;21.00;11.13;;;11.50;99.90;;;;;;5054138;28;20415;-81
2022/04/14 04:55:21;;;;;;;23.07;11.87;;;11.50;99.90;;;;;;5053989;28;20161;-81
2022/04/14 04:57:46;;;;;;;18.40;11.63;;;11.60;99.90;;;;;;5053794;28;20183;-81
2022/04/14 05:00:12;;;;;;;18.80;10.50;;;11.50;99.90;;;;;;5054038;28;20174;-80
2022/04/14 05:02:38;;;;;;;17.53;10.37;;;11.60;99.90;;;;;;5053701;28;20571;-83
2022/04/14 05:05:04;;;;;;;19.47;11.07;;;11.50;99.90;;;;;;5053766;28;20549;-81
2022/04/14 05:07:30;;;;;;;19.47;11.00;;;11.50;99.90;;;;;;5054017;28;20250;-81
2022/04/14 05:09:56;;;;;;;24.67;12.90;;;11.60;99.90;;;;;;5053783;28;20829;-80
2022/04/14 05:12:21;;;;;;;16.60;9.57;;;11.60;99.90;;;;;;5053860;28;20412;-82
2022/04/14 05:14:47;;;;;;;18.13;11.10;;;11.60;99.90;;;;;;5053720;28;20174;-82
2022/04/14 05:17:12;;;;;;;18.30;10.43;;;11.70;99.90;;;;;;5053935;28;20579;-81
2022/04/14 05:19:38;;;;;;;22.13;11.93;;;11.60;99.90;;;;;;5053620;28;20174;-81
2022/04/14 05:22:04;;;;;;;18.30;12.70;;;11.70;99.90;;;;;;5053864;28;20176;-81
2022/04/14 05:24:30;;;;;;;19.50;12.17;;;11.70;99.90;;;;;;5053750;28;20209;-80
2022/04/14 05:26:55;;;;;;;16.47;10.57;;;11.80;99.90;;;;;;5053614;28;20633;-80
2022/04/14 05:29:21;;;;;;;21.00;11.33;;;11.70;99.90;;;;;;5053617;28;20430;-79
2022/04/14 05:31:46;;;;;;;17.73;11.50;;;11.80;99.90;;;;;;5053552;28;20180;-80
2022/04/14 05:34:12;;;;;;;23.40;12.73;;;11.70;99.90;;;;;;5053075;28;20174;-80
2022/04/14 05:36:37;;;;;;;20.23;13.37;;;11.70;99.90;;;;;;5053487;28;20178;-79
2022/04/14 05:39:03;;;;;;;20.50;11.77;;;11.80;99.90;;;;;;5053490;28;20202;-80
2022/04/14 05:41:29;;;;;;;19.40;11.50;;;11.80;99.90;;;;;;5053359;28;20186;-82
2022/04/14 05:43:55;;;;;;;21.90;13.73;;;11.80;99.90;;;;;;5053251;28;20212;-82
2022/04/14 05:46:20;;;;;;;17.60;12.60;;;11.80;99.90;;;;;;5053313;28;20652;-81
2022/04/14 05:48:46;;;;;;;20.77;13.87;;;11.90;99.90;;;;;;5052982;28;20418;-82
2022/04/14 05:51:11;;;;;;;22.20;14.17;;;11.90;99.90;;;;;;5053210;28;20201;-82
2022/04/14 05:53:37;;;;;;;18.90;13.30;;;12.00;99.90;;;;;;5053357;28;20794;-81
2022/04/14 05:56:02;;;;;;;23.83;13.00;;;12.00;99.90;;;;;;5053182;28;20176;-81
2022/04/14 05:58:28;;;;;;;17.27;12.40;;;12.00;99.90;;;;;;5053094;28;20168;-82
2022/04/14 06:00:53;;;;;;;20.80;13.20;;;12.00;99.90;;;;;;5035262;28;20211;-81
2022/04/14 06:03:20;;;;;;;21.73;12.50;;;12.00;99.90;;;;;;5052634;28;20689;-81
2022/04/14 06:05:45;;;;;;;20.80;13.83;;;12.10;99.90;;;;;;5035390;28;20229;-80
2022/04/14 06:08:11;;;;;;;25.03;13.60;;;12.10;99.90;;;;;;5052024;28;20497;-81
2022/04/14 06:10:36;;;;;;;25.90;14.20;;;12.20;99.90;;;;;;5052807;28;20259;-80
2022/04/14 06:13:03;;;;;;;20.53;13.73;;;12.20;99.90;;;;;;5052854;28;20187;-81
2022/04/14 06:15:31;;;;;;;22.60;13.47;;;12.20;99.90;;;;;;5052569;28;20200;-81
2022/04/14 06:17:56;;;;;;;20.03;13.20;;;12.30;99.90;;;;;;5051644;28;20417;-81
2022/04/14 06:20:22;;;;;;;20.07;13.63;;;12.40;99.90;;;;;;5052795;28;20416;-81
2022/04/14 06:22:48;;;;;;;22.47;15.27;;;12.40;99.90;;;;;;5052604;28;20172;-81
2022/04/14 06:25:16;;;;;;;23.07;15.60;;;12.40;99.90;;;;;;5052635;28;20639;-81
2022/04/14 06:27:43;;;;;;;23.23;16.90;;;12.40;99.90;;;;;;5052427;28;20237;-81
2022/04/14 06:30:10;;;;;;;26.50;15.70;;;12.40;99.90;;;;;;5052825;28;20419;-80
2022/04/14 06:32:36;;;;;;;21.30;15.40;;;12.50;99.90;;;;;;5052610;28;20499;-81
2022/04/14 06:35:04;;;;;;;29.17;17.40;;;12.50;99.90;;;;;;5052678;28;20422;-81
2022/04/14 06:37:29;;;;;;;22.93;15.90;;;12.60;99.90;;;;;;5052682;28;20417;-81
2022/04/14 06:39:55;;;;;;;26.60;16.40;;;12.60;99.90;;;;;;5052729;28;20411;-80
2022/04/14 06:42:24;;;;;;;21.63;14.50;;;12.60;99.90;;;;;;5052784;28;20169;-80
2022/04/14 06:44:49;;;;;;;23.73;15.53;;;12.60;99.90;;;;;;5052722;28;20209;-80
2022/04/14 06:47:15;;;;;;;26.13;16.97;;;12.80;99.90;;;;;;5052876;28;20509;-80
2022/04/14 06:49:41;;;;;;;23.40;14.77;;;12.80;99.90;;;;;;5052489;28;20536;-81
2022/04/14 06:52:06;;;;;;;23.00;15.23;;;12.80;99.90;;;;;;5052759;28;20218;-80
2022/04/14 06:54:33;;;;;;;22.60;14.90;;;12.90;99.90;;;;;;5052681;28;20182;-80
2022/04/14 06:56:59;;;;;;;24.90;15.10;;;13.00;99.90;;;;;;5052800;28;20649;-80
2022/04/14 06:59:25;;;;;;;21.90;15.00;;;13.00;99.90;;;;;;5052598;28;20499;-80
2022/04/14 07:01:50;;;;;;;22.20;14.00;;;12.90;99.90;;;;;;5052645;28;20649;-80
2022/04/14 07:04:16;;;;;;;25.93;15.10;;;13.00;99.90;;;;;;5052166;28;20216;-80
2022/04/14 07:06:41;;;;;;;21.00;15.47;;;13.10;99.90;;;;;;5052494;28;20648;-80
2022/04/14 07:09:07;;;;;;;23.73;16.37;;;13.20;99.90;;;;;;5052428;28;20161;-80
2022/04/14 07:11:33;;;;;;;22.50;15.10;;;13.30;99.90;;;;;;5052488;28;20256;-81
2022/04/14 07:13:59;;;;;;;18.77;14.73;;;13.40;99.90;;;;;;5052456;28;20178;-80
2022/04/14 07:16:25;;;;;;;22.13;16.03;;;13.40;99.90;;;;;;5052594;28;20408;-81
2022/04/14 07:18:51;;;;;;;21.23;14.57;;;13.50;99.90;;;;;;5052627;28;20741;-80
2022/04/14 07:21:16;;;;;;;21.73;14.50;;;13.40;99.90;;;;;;5056346;28;20169;-81
2022/04/14 07:23:42;;;;;;;20.03;16.00;;;13.40;99.90;;;;;;5056274;28;20276;-80
2022/04/14 07:26:08;;;;;;;22.70;14.87;;;13.50;99.90;;;;;;5056257;28;20546;-81
2022/04/14 07:28:33;;;;;;;27.77;16.10;;;13.50;99.90;;;;;;5038124;28;20628;-80
2022/04/14 07:30:59;;;;;;;22.70;16.77;;;13.40;99.90;;;;;;5056454;28;20174;-81
2022/04/14 07:33:25;;;;;;;21.10;15.90;;;13.50;99.90;;;;;;5055887;28;20165;-81
2022/04/14 07:35:52;;;;;;;21.63;15.80;;;13.50;99.90;;;;;;5056162;28;20268;-81
2022/04/14 07:38:18;;;;;;;21.53;15.60;;;13.60;99.90;;;;;;5055969;28;20511;-80
2022/04/14 07:40:44;;;;;;;22.70;17.10;;;13.80;99.90;;;;;;5056489;28;20427;-80
2022/04/14 07:43:09;;;;;;;21.03;15.40;;;13.80;99.90;;;;;;5056348;28;20408;-81
2022/04/14 07:45:36;;;;;;;24.27;15.70;;;14.00;99.90;;;;;;5056138;28;20220;-80
2022/04/14 07:48:02;;;;;;;18.20;14.00;;;14.00;99.90;;;;;;5056000;28;20179;-81
2022/04/14 07:50:28;;;;;;;19.60;14.10;;;14.10;99.90;;;;;;5056485;28;20426;-80
2022/04/14 07:52:56;;;;;;;19.30;14.93;;;14.10;99.90;;;;;;5039112;28;20921;-81
2022/04/14 07:55:24;;;;;;;19.07;13.70;;;14.10;99.90;;;;;;5056575;28;20162;-81
2022/04/14 07:57:51;;;;;;;21.80;14.30;;;14.20;99.90;;;;;;5056579;28;20785;-81
2022/04/14 08:00:17;;;;;;;25.30;16.10;;;14.10;99.90;;;;;;5055868;28;20803;-80
2022/04/14 08:02:50;;;;;;;17.90;13.93;;;14.10;99.90;;;;;;5055208;28;20415;-81
2022/04/14 08:05:16;;;;;;;21.00;15.97;;;14.20;99.90;;;;;;5055390;28;20463;-81
2022/04/14 08:07:42;;;;;;;22.27;17.60;;;14.20;99.90;;;;;;5054792;28;20416;-81
2022/04/14 08:10:08;;;;;;;23.57;15.70;;;14.30;99.90;;;;;;5054718;28;20416;-81
2022/04/14 08:12:33;;;;;;;18.37;14.03;;;14.30;99.90;;;;;;5054833;28;20697;-81
2022/04/14 08:14:59;;;;;;;17.70;14.23;;;14.20;99.90;;;;;;5055175;28;20409;-81
2022/04/14 08:17:24;;;;;;;19.13;14.47;;;14.30;99.90;;;;;;5054620;28;20700;-81
2022/04/14 08:19:50;;;;;;;17.77;14.10;;;14.20;99.90;;;;;;5055081;28;20234;-81
2022/04/14 08:22:15;;;;;;;17.90;14.33;;;14.20;99.90;;;;;;5054925;28;20174;-80
2022/04/14 08:24:41;;;;;;;18.80;12.83;;;14.40;99.90;;;;;;5054868;28;20530;-81
2022/04/14 08:27:06;;;;;;;19.13;14.63;;;14.30;99.90;;;;;;5054618;28;20167;-81
2022/04/14 08:29:32;;;;;;;22.40;15.87;;;14.40;99.90;;;;;;5055111;28;20182;-81
2022/04/14 08:31:58;;;;;;;19.80;14.37;;;14.50;99.90;;;;;;5054044;28;20169;-81
2022/04/14 08:34:24;;;;;;;25.00;18.30;;;14.40;99.90;;;;;;5054402;28;20178;-81
2022/04/14 08:36:52;;;;;;;23.27;16.80;;;14.30;99.90;;;;;;5054921;28;20852;-81
2022/04/14 08:39:17;;;;;;;20.17;15.30;;;14.30;99.90;;;;;;5054701;28;20453;-81
2022/04/14 08:41:48;;;;;;;19.13;15.33;;;14.30;99.90;;;;;;5054501;28;20448;-81
2022/04/14 08:44:21;;;;;;;18.63;14.63;;;14.30;99.90;;;;;;5054445;28;20209;-81
2022/04/14 08:46:48;;;;;;;19.53;17.20;;;14.20;99.90;;;;;;5036576;28;20520;-81
2022/04/14 08:49:16;;;;;;;26.67;19.17;;;14.40;99.90;;;;;;5054214;28;20403;-81
2022/04/14 08:51:42;;;;;;;22.07;17.30;;;14.40;99.90;;;;;;5054469;28;20426;-81
2022/04/14 08:54:09;;;;;;;19.93;17.57;;;14.40;99.90;;;;;;5054498;28;20483;-81
2022/04/14 08:56:36;;;;;;;22.50;17.60;;;14.60;99.90;;;;;;5054370;28;20419;-81
2022/04/14 08:59:02;;;;;;;19.30;15.90;;;14.40;99.90;;;;;;5054404;28;21048;-81
2022/04/14 09:01:27;;;;;;;24.20;18.90;;;14.60;99.90;;;;;;5054189;28;20776;-81
2022/04/14 09:03:57;;;;;;;19.83;17.07;;;14.90;99.90;;;;;;5053705;28;20477;-81
2022/04/14 09:06:27;;;;;;;19.10;15.80;;;14.90;99.90;;;;;;5054141;28;20189;-81
2022/04/14 09:08:52;;;;;;;24.47;16.17;;;15.00;99.90;;;;;;5054175;28;20514;-82
2022/04/14 09:11:18;;;;;;;18.67;16.23;;;15.00;99.90;;;;;;5036291;28;20454;-82
2022/04/14 09:13:45;;;;;;;21.43;18.20;;;15.10;99.90;;;;;;5054086;28;20282;-81
2022/04/14 09:16:11;;;;;;;19.70;16.43;;;15.30;99.90;;;;;;5054089;28;20423;-81
2022/04/14 09:18:36;;;;;;;19.87;14.97;;;15.70;99.90;;;;;;5053640;28;20450;-79
2022/04/14 09:21:03;;;;;;;15.40;13.73;;;15.50;59.20;;;;;;5053908;28;20179;-81
2022/04/14 09:23:29;;;;;;;20.00;14.33;;;15.50;96.70;;;;;;5036306;28;20180;-80
2022/04/14 09:26:04;;;;;;;16.97;14.67;;;15.80;26.00;;;;;;5054026;28;20831;-81
2022/04/14 09:28:30;;;;;;;15.97;14.27;;;15.80;99.90;;;;;;5053585;28;20468;-82
2022/04/14 09:31:00;;;;;;;18.23;14.10;;;15.70;99.90;;;;;;5053565;28;20910;-81
2022/04/14 09:33:26;;;;;;;17.13;13.40;;;15.40;99.90;;;;;;5053342;28;20445;-81
2022/04/14 09:36:07;;;;;;;16.47;12.43;;;15.20;99.90;;;;;;5052394;28;20943;-81
2022/04/14 09:38:52;;;;;;;15.60;11.90;;;15.40;99.90;;;;;;5053506;28;20420;-81
2022/04/14 09:41:31;;;;;;;15.27;12.10;;;15.60;99.90;;;;;;5053575;28;20425;-81
2022/04/14 09:43:58;;;;;;;13.30;9.90;;;15.70;1.00;;;;;;5053240;28;20456;-81
2022/04/14 09:46:23;;;;;;;14.00;10.30;;;15.60;32.60;;;;;;5053098;28;20438;-80
2022/04/14 09:49:07;;;;;;;16.70;11.00;;;15.40;24.90;;;;;;5052788;28;20414;-81
2022/04/14 09:51:33;;;;;;;12.70;11.37;;;15.50;99.90;;;;;;5052217;28;20215;-82
2022/04/14 09:54:17;;;;;;;13.83;12.10;;;15.60;41.70;;;;;;5053174;28;20422;-82
2022/04/14 09:56:54;;;;;;;13.13;11.73;;;15.80;1.00;;;;;;5050930;28;21027;-86
2022/04/14 09:59:29;;;;;;;13.70;12.27;;;16.00;1.00;;;;;;5033725;28;20477;-88
2022/04/14 10:02:13;;;;;;;19.10;11.30;;;16.40;1.00;;;;;;5033948;28;20414;-86
2022/04/14 10:04:43;;;;;;;14.00;12.20;;;16.90;1.00;;;;;;5033063;28;20563;-87
2022/04/14 10:07:16;;;;;;;14.03;10.90;;;16.70;1.00;;;;;;5051260;28;20414;-87
2022/04/14 10:09:48;;;;;;;15.37;11.23;;;16.70;1.00;;;;;;5035517;28;20422;-87
2022/04/14 10:12:19;;;;;;;11.80;10.13;;;16.90;1.00;;;;;;5034199;28;20929;-86
2022/04/14 10:15:03;;;;;;;11.60;10.40;;;16.70;1.00;;;;;;5051887;28;20817;-85
2022/04/14 10:17:33;;;;;;;12.60;11.30;;;16.30;99.90;;;;;;5051621;28;20410;-85
2022/04/14 10:20:00;;;;;;;11.70;9.40;;;16.10;99.90;;;;;;5051997;28;20434;-85
2022/04/14 10:22:28;;;;;;;9.83;8.83;;;16.60;1.00;;;;;;5052110;28;20465;-85
2022/04/14 10:24:54;;;;;;;10.67;9.67;;;17.90;99.90;;;;;;5051534;28;20595;-85
2022/04/14 10:27:21;;;;;;;10.10;9.10;;;17.70;99.90;;;;;;5033592;28;20456;-86
2022/04/14 10:29:47;;;;;;;11.47;10.37;;;18.60;1.00;;;;;;5051753;28;20170;-83
2022/04/14 10:32:14;;;;;;;10.67;9.57;;;20.20;99.90;;;;;;5039313;28;20423;-82
2022/04/14 10:34:40;;;;;;;11.03;9.77;;;20.50;99.90;;;;;;5051931;28;20424;-84
2022/04/14 10:37:13;;;;;;;9.63;8.33;;;20.40;99.90;;;;;;5053164;28;20405;-82
2022/04/14 10:39:44;;;;;;;9.70;8.80;;;20.30;99.90;;;;;;5036126;28;20476;-84
2022/04/14 10:42:11;;;;;;;10.10;9.17;;;19.30;99.90;;;;;;5051535;28;20492;-83
2022/04/14 10:44:47;;;;;;;11.47;9.33;;;19.10;99.90;;;;;;5041819;28;20475;-85
2022/04/14 10:47:34;;;;;;;10.40;9.30;;;18.90;99.90;;;;;;5033498;28;20407;-84
2022/04/14 10:50:00;;;;;;;9.20;8.27;;;19.70;99.90;;;;;;5032652;28;20413;-86
2022/04/14 10:52:27;;;;;;;10.13;8.00;;;20.50;99.90;;;;;;5032081;28;20464;-84
2022/04/14 10:54:59;;;;;;;9.13;8.23;;;22.10;99.90;;;;;;5034024;28;20427;-86
2022/04/14 10:57:38;;;;;;;8.83;7.83;;;23.20;99.90;;;;;;5039007;28;20498;-86
2022/04/14 11:00:19;;;;;;;9.07;8.27;;;23.80;99.90;;;;;;5055888;28;20422;-86
2022/04/14 11:03:04;;;;;;;9.03;8.17;;;23.80;99.90;;;;;;5055152;28;20438;-85
2022/04/14 11:05:44;;;;;;;7.83;7.13;;;23.90;99.90;;;;;;5055446;28;20813;-87
2022/04/14 11:08:29;;;;;;;7.80;6.90;;;23.50;99.90;;;;;;5055076;28;20473;-86
2022/04/14 11:11:07;;;;;;;7.97;7.27;;;22.50;99.90;;;;;;5055347;28;20440;-86
2022/04/14 11:13:51;;;;;;;7.40;6.70;;;21.20;99.90;;;;;;5037384;28;20424;-87
2022/04/14 11:16:46;;;;;;;8.80;7.90;;;20.70;99.90;;;;;;5055191;28;20511;-86
2022/04/14 11:19:27;;;;;;;6.93;6.23;;;22.50;99.90;;;;;;5055146;28;20523;-86
2022/04/14 11:21:59;;;;;;;7.07;6.37;;;22.90;99.90;;;;;;5054999;28;20495;-84
2022/04/14 11:24:36;;;;;;;7.10;6.50;;;21.80;99.90;;;;;;5054846;28;20468;-85
2022/04/14 11:27:12;;;;;;;7.10;6.03;;;21.90;99.90;;;;;;5054869;28;20458;-85
2022/04/14 11:29:39;;;;;;;8.23;5.90;;;23.50;99.90;;;;;;5055752;28;20428;-80
2022/04/14 11:32:06;;;;;;;6.63;5.87;;;23.10;99.90;;;;;;5055338;28;20416;-82
2022/04/14 11:34:32;;;;;;;7.87;6.50;;;23.50;99.90;;;;;;5055517;28;20811;-80
2022/04/14 11:36:59;;;;;;;7.13;5.57;;;22.30;99.90;;;;;;5055433;28;20416;-79
2022/04/14 11:39:25;;;;;;;7.87;5.93;;;22.30;99.90;;;;;;5055638;28;20424;-79
2022/04/14 11:41:53;;;;;;;6.37;5.77;;;21.00;99.90;;;;;;5055816;28;20412;-79
2022/04/14 11:44:32;;;;;;;7.63;6.00;;;20.20;99.90;;;;;;5055540;28;20528;-80
2022/04/14 11:46:59;;;;;;;8.93;6.07;;;19.80;99.90;;;;;;5055291;28;20447;-79
2022/04/14 11:49:27;;;;;;;6.17;5.57;;;19.70;99.90;;;;;;5054300;28;20411;-80
2022/04/14 11:52:14;;;;;;;7.47;6.30;;;19.20;99.90;;;;;;5054235;28;20992;-80
2022/04/14 11:54:40;;;;;;;8.10;6.47;;;18.90;99.90;;;;;;5053364;28;20499;-81
2022/04/14 11:57:09;;;;;;;7.60;6.57;;;18.50;99.90;;;;;;5046283;28;20426;-80
2022/04/14 11:59:37;;;;;;;6.57;5.57;;;19.00;99.90;;;;;;5054357;28;20891;-80
2022/04/14 12:02:05;;;;;;;6.73;5.90;;;20.00;99.90;;;;;;5053728;28;20431;-80
2022/04/14 12:04:39;;;;;;;7.43;6.00;;;20.60;99.90;;;;;;5053968;28;20535;-80
2022/04/14 12:07:05;;;;;;;6.50;5.90;;;19.90;99.90;;;;;;5052896;28;20415;-80
2022/04/14 12:09:31;;;;;;;7.63;6.83;;;19.80;99.90;;;;;;5054221;28;20462;-79
2022/04/14 12:11:57;;;;;;;8.00;7.17;;;19.80;99.90;;;;;;5036098;28;20408;-80
2022/04/14 12:14:23;;;;;;;7.20;6.37;;;19.70;99.90;;;;;;5054054;28;20920;-80
2022/04/14 12:16:53;;;;;;;7.07;4.70;;;19.70;99.90;;;;;;5035670;28;20254;-79
2022/04/14 12:19:20;;;;;;;6.50;5.70;;;19.60;99.90;;;;;;5053748;28;20414;-80
2022/04/14 12:22:05;;;;;;;8.20;5.60;;;20.00;99.90;;;;;;5053919;28;20487;-79
2022/04/14 12:24:30;;;;;;;9.37;6.83;;;20.50;99.90;;;;;;5052222;28;20508;-80
2022/04/14 12:26:58;;;;;;;6.80;6.10;;;20.10;99.90;;;;;;5053615;28;20481;-80
2022/04/14 12:29:24;;;;;;;6.87;5.73;;;20.00;99.90;;;;;;5051067;28;20207;-80
2022/04/14 12:32:08;;;;;;;7.07;6.30;;;19.50;99.90;;;;;;5053535;28;20843;-80